Time;durP1;ratioP1;P1;durP2;ratioP2;P2;SDS_P1;SDS_P2;PMS_P1;PMS_P2;Temp;Humidity;BMP_temperature;BMP_pressure;BME280_temperature;BME280_humidity;BME280_pressure;Samples;Min_cycle;Max_cycle;Signal;HPM_P1;HPM_P2
2021/07/18 00:00:19;;;;;;;3.53;1.90;;;18.80;85.00;;;;;;2073239;28;20085;-82
2021/07/18 00:01:19;;;;;;;4.28;1.80;;;18.80;85.10;;;;;;2089153;28;20045;-82
2021/07/18 00:02:20;;;;;;;4.00;1.67;;;18.80;85.00;;;;;;2097957;28;20029;-82
2021/07/18 00:03:21;;;;;;;3.08;1.80;;;18.80;85.10;;;;;;2072993;28;20128;-82
2021/07/18 00:04:21;;;;;;;4.13;2.22;;;18.80;85.20;;;;;;2057079;28;20073;-82
2021/07/18 00:05:23;;;;;;;3.95;2.10;;;18.80;85.20;;;;;;2073219;28;20026;-82
2021/07/18 00:06:23;;;;;;;3.67;1.85;;;18.70;85.30;;;;;;2089687;28;20033;-82
2021/07/18 00:07:24;;;;;;;4.20;2.00;;;18.70;85.40;;;;;;2073177;28;20087;-82
2021/07/18 00:08:25;;;;;;;3.90;2.10;;;18.70;85.40;;;;;;2064594;28;20124;-82
2021/07/18 00:09:25;;;;;;;3.00;1.90;;;18.70;85.50;;;;;;2072877;28;20034;-82
2021/07/18 00:10:27;;;;;;;4.20;2.35;;;18.70;85.50;;;;;;2073203;28;20492;-82
2021/07/18 00:11:28;;;;;;;2.45;1.70;;;18.70;85.50;;;;;;2073399;28;20034;-82
2021/07/18 00:12:28;;;;;;;3.15;1.77;;;18.70;85.50;;;;;;2073254;28;20022;-82
2021/07/18 00:13:29;;;;;;;3.92;2.42;;;18.70;85.50;;;;;;2073063;28;20034;-82
2021/07/18 00:14:29;;;;;;;5.43;2.22;;;18.70;85.50;;;;;;2089417;28;20405;-82
2021/07/18 00:15:30;;;;;;;4.53;2.47;;;18.70;85.60;;;;;;2083413;28;20033;-82
2021/07/18 00:16:32;;;;;;;3.78;2.28;;;18.70;85.60;;;;;;2081084;28;20037;-82
2021/07/18 00:17:37;;;;;;;4.72;2.53;;;18.70;85.70;;;;;;2081297;28;20039;-82
2021/07/18 00:18:37;;;;;;;4.72;2.75;;;18.70;85.70;;;;;;2073394;28;20070;-82
2021/07/18 00:19:38;;;;;;;3.88;2.50;;;18.70;85.70;;;;;;2065571;28;20099;-82
2021/07/18 00:20:39;;;;;;;6.13;3.00;;;18.70;85.80;;;;;;2073060;28;20113;-82
2021/07/18 00:21:40;;;;;;;5.22;3.10;;;18.60;85.80;;;;;;2073182;28;20022;-82
2021/07/18 00:22:42;;;;;;;5.95;2.97;;;18.70;85.90;;;;;;2073078;28;20057;-82
2021/07/18 00:23:43;;;;;;;5.30;2.75;;;18.60;85.90;;;;;;2073275;28;20034;-82
2021/07/18 00:24:43;;;;;;;4.38;2.60;;;18.60;86.00;;;;;;2073043;28;20030;-82
2021/07/18 00:25:44;;;;;;;5.85;2.83;;;18.60;86.10;;;;;;2073076;28;20026;-82
2021/07/18 00:26:45;;;;;;;4.95;2.72;;;18.60;86.20;;;;;;2072942;28;20045;-82
2021/07/18 00:27:46;;;;;;;5.60;2.70;;;18.60;86.20;;;;;;2066134;28;20121;-82
2021/07/18 00:28:46;;;;;;;5.70;2.92;;;18.60;86.30;;;;;;2064918;28;20085;-82
2021/07/18 00:29:47;;;;;;;4.53;2.85;;;18.50;86.30;;;;;;2064936;28;20030;-82
2021/07/18 00:30:48;;;;;;;4.50;2.88;;;18.60;86.40;;;;;;2056765;28;20568;-82
2021/07/18 00:31:49;;;;;;;5.85;3.03;;;18.60;86.50;;;;;;2065089;28;20413;-82
2021/07/18 00:32:49;;;;;;;4.18;2.67;;;18.50;86.40;;;;;;2081282;28;20064;-82
2021/07/18 00:33:50;;;;;;;3.50;2.47;;;18.50;87.10;;;;;;2081346;28;20052;-82
2021/07/18 00:34:51;;;;;;;4.72;2.60;;;18.50;86.60;;;;;;2073082;28;20065;-82
2021/07/18 00:35:51;;;;;;;4.85;2.65;;;18.50;86.60;;;;;;2061258;28;20030;-82
2021/07/18 00:36:52;;;;;;;4.70;2.72;;;18.50;86.70;;;;;;2065040;28;20081;-82
2021/07/18 00:37:52;;;;;;;3.85;2.60;;;18.50;86.70;;;;;;2081283;28;20526;-82
2021/07/18 00:38:53;;;;;;;3.85;2.80;;;18.50;86.70;;;;;;2080812;28;20041;-82
2021/07/18 00:39:54;;;;;;;4.00;2.50;;;18.50;86.70;;;;;;2064660;28;20025;-82
2021/07/18 00:40:55;;;;;;;3.42;2.53;;;18.50;86.70;;;;;;2065007;28;20081;-82
2021/07/18 00:41:55;;;;;;;3.95;2.63;;;18.50;86.70;;;;;;2064950;28;20072;-82
2021/07/18 00:42:56;;;;;;;3.72;2.65;;;18.50;86.70;;;;;;2064950;28;20509;-82
2021/07/18 00:43:57;;;;;;;4.07;2.60;;;18.50;86.70;;;;;;2057014;28;20421;-82
2021/07/18 00:44:57;;;;;;;4.07;2.53;;;18.50;86.80;;;;;;2064772;28;20069;-82
2021/07/18 00:46:02;;;;;;;3.58;2.53;;;18.50;86.80;;;;;;2072859;28;20018;-82
2021/07/18 00:47:02;;;;;;;3.10;2.22;;;18.50;86.80;;;;;;2065430;28;20035;-82
2021/07/18 00:48:05;;;;;;;4.70;3.00;;;18.50;86.80;;;;;;2064702;28;20030;-82
2021/07/18 00:49:05;;;;;;;3.67;2.58;;;18.60;86.90;;;;;;2081474;28;20033;-82
2021/07/18 00:50:15;;;;;;;4.35;2.65;;;18.50;86.80;;;;;;2081129;28;20057;-82
2021/07/18 00:51:16;;;;;;;4.93;2.92;;;18.60;86.90;;;;;;2072785;28;20129;-82
2021/07/18 00:52:17;;;;;;;3.85;2.60;;;18.50;87.50;;;;;;2064841;28;20026;-82
2021/07/18 00:53:17;;;;;;;4.95;2.65;;;18.50;87.00;;;;;;2072737;28;20441;-82
2021/07/18 00:54:18;;;;;;;3.50;2.50;;;18.50;87.20;;;;;;2073024;28;20124;-82
2021/07/18 00:55:19;;;;;;;3.45;2.63;;;18.40;87.20;;;;;;2048826;28;20046;-82
2021/07/18 00:56:21;;;;;;;3.47;2.50;;;18.50;87.30;;;;;;2065049;28;20076;-82
2021/07/18 00:57:22;;;;;;;4.97;2.92;;;18.50;87.90;;;;;;2081084;28;20025;-82
2021/07/18 00:58:27;;;;;;;3.80;2.60;;;18.50;87.80;;;;;;2073104;28;20029;-82
2021/07/18 00:59:28;;;;;;;4.53;2.35;;;18.50;87.20;;;;;;2065094;28;20114;-83
2021/07/18 01:00:29;;;;;;;3.30;2.38;;;18.50;87.20;;;;;;2072733;28;20030;-83
2021/07/18 01:01:31;;;;;;;4.78;2.50;;;18.50;87.10;;;;;;2073081;28;20022;-84
2021/07/18 01:02:32;;;;;;;2.97;2.30;;;18.50;87.10;;;;;;2081093;28;20083;-83
2021/07/18 01:03:32;;;;;;;2.92;2.30;;;18.50;87.10;;;;;;2081184;28;20076;-83
2021/07/18 01:04:33;;;;;;;3.50;2.30;;;18.50;87.10;;;;;;2064779;28;20035;-83
2021/07/18 01:05:34;;;;;;;3.35;2.22;;;18.50;87.20;;;;;;2048793;28;20023;-83
2021/07/18 01:06:35;;;;;;;3.30;2.28;;;18.60;87.10;;;;;;2064739;28;20034;-83
2021/07/18 01:07:35;;;;;;;3.80;2.40;;;18.60;87.10;;;;;;2056811;28;20046;-83
2021/07/18 01:08:36;;;;;;;3.30;2.45;;;18.60;87.10;;;;;;2064782;28;20042;-83
2021/07/18 01:09:37;;;;;;;3.47;2.53;;;18.50;87.00;;;;;;2072342;28;20129;-83
2021/07/18 01:10:38;;;;;;;4.70;2.45;;;18.60;87.00;;;;;;2073047;28;20088;-83
2021/07/18 01:11:39;;;;;;;6.07;2.30;;;18.50;87.10;;;;;;2072841;28;20030;-83
2021/07/18 01:12:40;;;;;;;2.58;2.05;;;18.50;87.10;;;;;;2081635;28;20484;-83
2021/07/18 01:13:40;;;;;;;3.20;2.30;;;18.50;87.20;;;;;;2072905;28;20037;-83
2021/07/18 01:14:41;;;;;;;3.15;2.20;;;18.50;87.20;;;;;;2056783;28;20508;-83
2021/07/18 01:15:42;;;;;;;4.32;2.20;;;18.50;87.30;;;;;;2063742;28;20587;-83
2021/07/18 01:16:44;;;;;;;3.90;2.00;;;18.50;88.00;;;;;;2056411;28;20122;-83
2021/07/18 01:17:46;;;;;;;8.43;2.30;;;18.50;87.30;;;;;;2064947;28;20104;-84
2021/07/18 01:18:46;;;;;;;3.33;2.15;;;18.40;87.30;;;;;;2057096;28;20437;-84
2021/07/18 01:19:47;;;;;;;2.53;2.10;;;18.50;87.40;;;;;;2064727;28;20038;-83
2021/07/18 01:20:50;;;;;;;6.03;2.28;;;18.40;87.50;;;;;;2072736;28;20054;-83
2021/07/18 01:22:00;;;;;;;3.75;1.92;;;18.40;87.60;;;;;;2072702;28;20026;-83
2021/07/18 01:23:01;;;;;;;5.57;2.03;;;18.40;87.60;;;;;;2081673;28;20518;-84
2021/07/18 01:24:02;;;;;;;3.35;1.70;;;18.40;87.60;;;;;;2064870;28;20143;-83
2021/07/18 01:25:06;;;;;;;4.47;1.90;;;18.40;87.60;;;;;;2064874;28;20037;-83
2021/07/18 01:26:07;;;;;;;3.40;2.25;;;18.40;87.70;;;;;;2073210;28;20076;-83
2021/07/18 01:27:08;;;;;;;4.78;1.92;;;18.40;87.70;;;;;;2079153;28;20021;-83
2021/07/18 01:28:11;;;;;;;2.42;1.83;;;18.40;87.70;;;;;;2080934;28;20451;-83
2021/07/18 01:29:12;;;;;;;4.72;2.13;;;18.40;87.70;;;;;;2088947;28;20028;-83
2021/07/18 01:30:14;;;;;;;2.58;2.15;;;18.40;87.70;;;;;;2081273;28;20026;-83
2021/07/18 01:31:15;;;;;;;2.55;1.95;;;18.40;87.70;;;;;;2072875;28;20034;-82
2021/07/18 01:32:15;;;;;;;5.30;2.15;;;18.40;87.70;;;;;;2072749;28;20465;-83
2021/07/18 01:33:16;;;;;;;3.88;2.00;;;18.40;87.70;;;;;;2072647;28;20053;-83
2021/07/18 01:34:17;;;;;;;3.38;1.90;;;18.40;87.70;;;;;;2081131;28;20061;-83
2021/07/18 01:35:18;;;;;;;3.25;2.30;;;18.40;87.80;;;;;;2080813;28;20073;-83
2021/07/18 01:36:18;;;;;;;2.40;1.98;;;18.30;87.80;;;;;;2072498;28;20092;-83
2021/07/18 01:37:19;;;;;;;4.35;2.15;;;18.40;87.90;;;;;;2072801;28;20022;-83
2021/07/18 01:38:19;;;;;;;4.50;2.30;;;18.40;87.80;;;;;;2072796;28;20077;-83
2021/07/18 01:39:20;;;;;;;3.03;2.20;;;18.30;87.70;;;;;;2072599;28;20121;-83
2021/07/18 01:40:21;;;;;;;2.50;1.90;;;18.30;87.90;;;;;;2072800;28;20425;-83
2021/07/18 01:41:22;;;;;;;2.58;2.00;;;18.30;88.50;;;;;;2056636;28;20050;-83
2021/07/18 01:42:24;;;;;;;3.95;2.10;;;18.30;88.10;;;;;;2073655;28;20030;-84
2021/07/18 01:43:24;;;;;;;3.25;2.38;;;18.30;88.20;;;;;;2078632;28;20500;-83
2021/07/18 01:44:25;;;;;;;3.08;1.98;;;18.30;88.30;;;;;;2072521;28;20033;-83
2021/07/18 01:45:26;;;;;;;3.00;2.15;;;18.30;88.30;;;;;;2066043;28;20018;-83
2021/07/18 01:46:28;;;;;;;3.88;2.00;;;18.30;88.30;;;;;;2074375;28;20068;-83
2021/07/18 01:47:29;;;;;;;3.28;2.20;;;18.30;88.30;;;;;;2074137;28;20424;-83
2021/07/18 01:48:30;;;;;;;5.15;2.33;;;18.30;88.30;;;;;;2066243;28;20125;-83
2021/07/18 01:49:30;;;;;;;3.22;2.30;;;18.30;88.40;;;;;;2066267;28;20022;-83
2021/07/18 01:50:32;;;;;;;3.17;2.38;;;18.30;88.30;;;;;;2074185;28;20060;-83
2021/07/18 01:51:34;;;;;;;3.47;2.30;;;18.30;88.30;;;;;;2090709;28;20124;-83
2021/07/18 01:52:35;;;;;;;4.88;2.65;;;18.30;88.20;;;;;;2082405;28;20408;-83
2021/07/18 01:53:35;;;;;;;4.85;2.67;;;18.30;88.20;;;;;;2082406;28;20044;-83
2021/07/18 01:54:36;;;;;;;3.22;2.45;;;18.30;88.30;;;;;;2074268;28;20034;-83
2021/07/18 01:55:37;;;;;;;3.10;2.42;;;18.20;88.20;;;;;;2066108;28;20022;-83
2021/07/18 01:56:38;;;;;;;3.05;2.42;;;18.20;88.40;;;;;;2074303;28;20121;-83
2021/07/18 01:57:40;;;;;;;4.03;2.30;;;18.20;88.50;;;;;;2074102;28;20419;-83
2021/07/18 01:58:40;;;;;;;3.75;2.50;;;18.10;88.60;;;;;;2058031;28;20058;-83
2021/07/18 01:59:41;;;;;;;3.10;2.10;;;18.10;88.60;;;;;;2066192;28;20161;-83
2021/07/18 02:00:41;;;;;;;5.30;2.70;;;18.10;88.60;;;;;;2057887;28;20030;-83
2021/07/18 02:01:43;;;;;;;4.60;2.55;;;18.10;88.70;;;;;;2066144;28;20026;-83
2021/07/18 02:02:52;;;;;;;4.18;2.30;;;18.10;88.70;;;;;;2074252;28;20034;-83
2021/07/18 02:03:53;;;;;;;3.00;2.25;;;18.10;88.70;;;;;;2083591;28;20052;-83
2021/07/18 02:04:53;;;;;;;5.63;2.42;;;18.10;88.70;;;;;;2090639;28;20036;-83
2021/07/18 02:05:55;;;;;;;3.00;2.10;;;18.10;88.70;;;;;;2074269;28;20541;-83
2021/07/18 02:06:55;;;;;;;3.95;2.60;;;18.10;88.80;;;;;;2074184;28;20033;-83
2021/07/18 02:07:56;;;;;;;4.38;2.35;;;18.10;89.40;;;;;;2074155;28;20030;-83
2021/07/18 02:08:59;;;;;;;6.45;2.45;;;18.10;88.80;;;;;;2065765;28;20069;-83
2021/07/18 02:09:59;;;;;;;4.30;2.63;;;18.20;88.90;;;;;;2066474;28;20026;-83
2021/07/18 02:11:00;;;;;;;3.80;2.75;;;18.20;88.80;;;;;;2074186;28;20033;-83
2021/07/18 02:12:01;;;;;;;4.78;2.40;;;18.20;89.50;;;;;;2090616;28;20025;-83
2021/07/18 02:13:01;;;;;;;5.65;2.45;;;18.10;88.70;;;;;;2090378;28;20434;-83
2021/07/18 02:14:03;;;;;;;2.90;2.25;;;18.10;89.10;;;;;;2074153;28;20049;-83
2021/07/18 02:15:07;;;;;;;3.72;2.60;;;18.10;89.50;;;;;;2071983;28;20389;-83
2021/07/18 02:16:07;;;;;;;3.42;2.60;;;18.10;89.00;;;;;;2074423;28;20496;-83
2021/07/18 02:17:08;;;;;;;3.45;2.42;;;18.00;89.00;;;;;;2066065;28;20026;-83
2021/07/18 02:18:08;;;;;;;3.95;2.88;;;18.10;89.10;;;;;;2072498;28;20065;-83
2021/07/18 02:19:10;;;;;;;4.38;3.00;;;18.10;89.20;;;;;;2074131;28;20092;-83
2021/07/18 02:20:13;;;;;;;4.53;2.58;;;18.00;89.20;;;;;;2066215;28;20026;-83
2021/07/18 02:21:16;;;;;;;5.22;3.20;;;18.10;89.20;;;;;;2082328;28;20029;-83
2021/07/18 02:22:26;;;;;;;3.90;2.63;;;18.10;89.20;;;;;;2082302;28;20492;-83
2021/07/18 02:23:27;;;;;;;4.35;2.78;;;18.10;89.20;;;;;;2083680;28;20030;-83
2021/07/18 02:24:27;;;;;;;4.30;2.40;;;18.10;89.20;;;;;;2081998;28;20029;-83
2021/07/18 02:25:29;;;;;;;5.53;2.50;;;18.10;89.10;;;;;;2082214;28;20095;-83
2021/07/18 02:26:30;;;;;;;5.10;2.50;;;18.10;89.10;;;;;;2074096;28;20112;-83
2021/07/18 02:27:31;;;;;;;6.43;2.70;;;18.10;89.00;;;;;;2074149;28;20116;-83
2021/07/18 02:28:32;;;;;;;5.05;2.40;;;18.10;89.10;;;;;;2074134;28;20519;-84
2021/07/18 02:29:33;;;;;;;4.22;2.70;;;18.10;89.10;;;;;;2074104;28;20042;-83
2021/07/18 02:30:33;;;;;;;4.30;2.33;;;18.10;89.20;;;;;;2082275;28;20514;-83
2021/07/18 02:31:34;;;;;;;3.90;2.55;;;18.00;89.20;;;;;;2074051;28;20060;-84
2021/07/18 02:32:35;;;;;;;3.17;2.20;;;18.00;89.40;;;;;;2066060;28;20030;-83
2021/07/18 02:33:36;;;;;;;3.45;2.40;;;18.00;89.40;;;;;;2082091;28;20037;-83
2021/07/18 02:34:37;;;;;;;3.80;2.47;;;17.90;89.60;;;;;;2073975;28;20030;-83
2021/07/18 02:35:37;;;;;;;4.60;2.55;;;18.00;89.70;;;;;;2057778;28;20023;-83
2021/07/18 02:36:38;;;;;;;3.30;2.30;;;18.00;89.60;;;;;;2057915;28;20039;-83
2021/07/18 02:37:42;;;;;;;4.03;2.38;;;18.00;89.60;;;;;;2057870;28;20025;-83
2021/07/18 02:38:43;;;;;;;5.35;2.45;;;18.00;89.60;;;;;;2066684;28;20045;-83
2021/07/18 02:39:44;;;;;;;3.42;2.40;;;18.00;89.60;;;;;;2065845;28;20037;-83
2021/07/18 02:40:44;;;;;;;3.75;2.47;;;18.00;89.60;;;;;;2049678;29;20564;-83
2021/07/18 02:41:45;;;;;;;4.15;2.50;;;18.00;89.60;;;;;;2050534;28;20035;-83
2021/07/18 02:42:46;;;;;;;3.83;2.65;;;18.00;89.60;;;;;;2057882;28;20034;-82
2021/07/18 02:43:47;;;;;;;4.60;2.53;;;18.10;89.60;;;;;;2058224;28;20023;-82
2021/07/18 02:44:47;;;;;;;3.70;2.55;;;18.10;89.60;;;;;;2058031;28;20471;-82
2021/07/18 02:45:48;;;;;;;4.10;2.40;;;18.10;89.60;;;;;;2081214;28;20376;-83
2021/07/18 02:46:48;;;;;;;3.35;2.40;;;18.00;89.50;;;;;;2082923;28;20061;-82
2021/07/18 02:47:49;;;;;;;4.85;2.78;;;18.10;89.60;;;;;;2074569;28;20040;-82
2021/07/18 02:48:50;;;;;;;3.35;2.50;;;18.00;89.60;;;;;;2074432;28;20034;-82
2021/07/18 02:49:51;;;;;;;3.25;2.17;;;18.00;89.70;;;;;;2073890;28;20081;-82
2021/07/18 02:50:52;;;;;;;3.20;2.42;;;18.00;89.80;;;;;;2057410;28;20575;-82
2021/07/18 02:51:52;;;;;;;3.85;2.53;;;18.00;89.80;;;;;;2065121;28;20126;-82
2021/07/18 02:52:54;;;;;;;3.88;2.50;;;18.00;89.80;;;;;;2061756;28;20528;-82
2021/07/18 02:53:55;;;;;;;3.22;2.30;;;18.00;89.80;;;;;;2074297;28;20420;-82
2021/07/18 02:54:55;;;;;;;3.88;2.47;;;18.00;89.80;;;;;;2075515;28;20052;-82
2021/07/18 02:55:56;;;;;;;3.45;2.38;;;18.00;89.90;;;;;;2068613;28;20043;-82
2021/07/18 02:56:57;;;;;;;4.28;2.60;;;18.00;89.90;;;;;;2067633;28;20030;-82
2021/07/18 02:57:57;;;;;;;3.75;2.13;;;18.00;89.80;;;;;;2067690;28;20062;-82
2021/07/18 02:58:58;;;;;;;3.35;2.25;;;18.10;89.90;;;;;;2060518;28;20482;-82
2021/07/18 02:59:59;;;;;;;3.20;2.28;;;18.00;89.80;;;;;;2059097;28;20063;-83
2021/07/18 03:00:59;;;;;;;4.15;2.38;;;18.00;89.80;;;;;;2066573;28;20027;-82
2021/07/18 03:02:02;;;;;;;4.85;2.38;;;18.10;89.80;;;;;;2065753;28;20532;-82
2021/07/18 03:03:03;;;;;;;3.55;2.35;;;18.10;89.80;;;;;;2065665;28;20089;-82
2021/07/18 03:04:04;;;;;;;3.95;2.78;;;18.10;89.70;;;;;;2058526;28;20113;-82
2021/07/18 03:05:05;;;;;;;3.25;2.45;;;18.20;89.70;;;;;;2065535;28;20022;-82
2021/07/18 03:06:06;;;;;;;2.92;2.03;;;18.10;89.60;;;;;;2057507;28;20441;-82
2021/07/18 03:07:06;;;;;;;3.15;2.20;;;18.10;89.50;;;;;;2065711;28;20128;-82
2021/07/18 03:08:08;;;;;;;2.78;2.10;;;18.20;89.50;;;;;;2065613;28;20066;-82
2021/07/18 03:09:09;;;;;;;2.95;2.10;;;18.20;89.50;;;;;;2069653;28;20032;-82
2021/07/18 03:10:12;;;;;;;4.32;2.33;;;18.10;89.50;;;;;;2073894;28;20026;-82
2021/07/18 03:11:12;;;;;;;3.15;2.22;;;18.20;89.60;;;;;;2082419;28;20113;-82
2021/07/18 03:12:13;;;;;;;3.85;2.50;;;18.10;89.40;;;;;;2073759;28;20026;-81
2021/07/18 03:13:14;;;;;;;3.08;2.22;;;18.10;89.50;;;;;;2057411;28;20023;-82
2021/07/18 03:14:14;;;;;;;6.18;2.40;;;18.10;89.50;;;;;;2082037;28;20099;-82
2021/07/18 03:15:16;;;;;;;3.17;2.10;;;18.10;89.60;;;;;;2073267;28;20026;-82
2021/07/18 03:16:17;;;;;;;3.65;2.45;;;18.00;89.60;;;;;;2065591;28;20038;-82
2021/07/18 03:17:17;;;;;;;3.10;2.30;;;18.00;89.70;;;;;;2066866;28;20390;-82
2021/07/18 03:18:18;;;;;;;3.65;2.35;;;18.00;89.80;;;;;;2073593;28;20042;-82
2021/07/18 03:19:19;;;;;;;5.63;2.70;;;18.00;89.90;;;;;;2081713;28;20028;-82
2021/07/18 03:20:20;;;;;;;4.05;2.35;;;18.00;90.00;;;;;;2065594;28;20505;-83
2021/07/18 03:21:20;;;;;;;3.45;2.30;;;18.00;90.00;;;;;;2057212;28;20050;-83
2021/07/18 03:22:21;;;;;;;5.07;2.90;;;18.00;90.00;;;;;;2057478;28;20027;-82
2021/07/18 03:23:22;;;;;;;4.05;2.78;;;18.00;90.00;;;;;;2057053;28;20473;-82
2021/07/18 03:24:23;;;;;;;4.50;2.78;;;18.00;90.00;;;;;;2065411;28;20531;-82
2021/07/18 03:25:24;;;;;;;4.07;2.63;;;18.00;90.00;;;;;;2065467;28;20157;-82
2021/07/18 03:26:24;;;;;;;4.00;2.70;;;18.00;90.00;;;;;;2073674;28;20018;-82
2021/07/18 03:27:25;;;;;;;3.80;2.40;;;18.00;90.00;;;;;;2081584;28;20545;-81
2021/07/18 03:28:26;;;;;;;3.60;2.65;;;18.00;90.00;;;;;;2081608;28;20064;-82
2021/07/18 03:29:27;;;;;;;4.05;3.10;;;18.00;90.00;;;;;;2081700;28;20148;-82
2021/07/18 03:30:28;;;;;;;3.92;2.75;;;18.00;90.00;;;;;;2073538;28;20503;-82
2021/07/18 03:31:29;;;;;;;4.43;2.63;;;18.00;90.00;;;;;;2065839;28;20129;-82
2021/07/18 03:32:29;;;;;;;3.95;2.78;;;18.00;90.00;;;;;;2065147;28;20027;-82
2021/07/18 03:33:30;;;;;;;5.30;3.30;;;18.00;90.00;;;;;;2065269;28;20042;-82
2021/07/18 03:34:30;;;;;;;4.25;2.67;;;18.00;90.00;;;;;;2057405;28;20034;-82
2021/07/18 03:35:31;;;;;;;4.07;2.80;;;18.00;90.00;;;;;;2073312;28;20040;-82
2021/07/18 03:36:32;;;;;;;4.93;3.20;;;18.10;90.00;;;;;;2081522;28;20056;-82
2021/07/18 03:37:33;;;;;;;4.30;3.08;;;18.10;90.00;;;;;;2073163;28;20077;-82
2021/07/18 03:38:34;;;;;;;4.75;3.20;;;18.00;90.00;;;;;;2073364;28;20029;-82
2021/07/18 03:39:35;;;;;;;4.13;2.95;;;18.00;90.00;;;;;;2073062;28;20038;-82
2021/07/18 03:40:36;;;;;;;4.50;3.00;;;18.00;90.00;;;;;;2081513;28;20439;-82
2021/07/18 03:41:37;;;;;;;4.47;3.15;;;18.00;90.00;;;;;;2081449;28;20030;-82
2021/07/18 03:42:38;;;;;;;4.90;3.20;;;18.00;90.00;;;;;;2075105;28;20032;-82
2021/07/18 03:43:39;;;;;;;4.43;3.00;;;18.10;90.00;;;;;;2081558;28;20088;-82
2021/07/18 03:44:40;;;;;;;4.80;2.83;;;18.00;90.00;;;;;;2089492;28;20059;-82
2021/07/18 03:45:41;;;;;;;3.95;2.88;;;18.00;90.00;;;;;;2067417;28;20057;-82
2021/07/18 03:46:42;;;;;;;5.05;3.08;;;18.00;90.00;;;;;;2049185;28;20027;-82
2021/07/18 03:47:43;;;;;;;4.45;2.88;;;18.00;90.00;;;;;;2057206;28;20039;-82
2021/07/18 03:48:43;;;;;;;4.47;3.00;;;18.00;90.00;;;;;;2065559;28;20022;-82
2021/07/18 03:49:44;;;;;;;3.35;2.50;;;18.00;90.00;;;;;;2081474;28;20422;-82
2021/07/18 03:50:46;;;;;;;4.20;3.10;;;18.00;90.00;;;;;;2081236;28;20029;-82
2021/07/18 03:51:47;;;;;;;4.38;3.00;;;18.00;90.00;;;;;;2081678;28;20025;-82
2021/07/18 03:52:48;;;;;;;5.68;3.60;;;18.00;90.00;;;;;;2073390;28;20060;-82
2021/07/18 03:53:49;;;;;;;4.43;3.08;;;18.00;90.10;;;;;;2065097;28;20065;-82
2021/07/18 03:54:49;;;;;;;4.40;3.10;;;18.00;90.10;;;;;;2073232;28;20507;-82
2021/07/18 03:55:50;;;;;;;4.55;3.15;;;18.00;90.10;;;;;;2073125;28;20034;-82
2021/07/18 03:56:51;;;;;;;4.18;2.97;;;18.00;90.00;;;;;;2049300;28;20027;-83
2021/07/18 03:57:51;;;;;;;4.45;2.88;;;18.00;90.00;;;;;;2049158;28;20027;-82
2021/07/18 03:58:52;;;;;;;4.28;3.28;;;18.00;90.00;;;;;;2057111;28;20034;-82
2021/07/18 03:59:54;;;;;;;4.93;3.42;;;18.00;90.10;;;;;;2072983;28;20033;-82
2021/07/18 04:00:54;;;;;;;3.45;2.78;;;18.00;90.10;;;;;;2073562;28;20030;-82
2021/07/18 04:01:55;;;;;;;4.28;3.00;;;18.00;90.10;;;;;;2081409;28;20127;-82
2021/07/18 04:02:56;;;;;;;5.22;2.97;;;18.00;90.10;;;;;;2073165;28;20033;-81
2021/07/18 04:03:56;;;;;;;4.18;3.05;;;18.00;90.10;;;;;;2073152;28;20105;-82
2021/07/18 04:04:57;;;;;;;4.70;2.92;;;18.00;90.30;;;;;;2081110;28;20404;-83
2021/07/18 04:05:57;;;;;;;5.35;3.28;;;18.00;90.00;;;;;;2073243;28;20030;-82
2021/07/18 04:06:58;;;;;;;4.32;3.00;;;18.00;90.00;;;;;;2056905;28;20113;-83
2021/07/18 04:07:59;;;;;;;6.82;3.13;;;18.00;90.00;;;;;;2064935;28;20026;-83
2021/07/18 04:09:00;;;;;;;4.45;2.92;;;18.00;90.00;;;;;;2056775;28;20111;-82
2021/07/18 04:10:03;;;;;;;4.25;2.85;;;18.00;90.00;;;;;;2065101;28;20029;-82
2021/07/18 04:11:03;;;;;;;4.45;2.88;;;18.00;90.00;;;;;;2081668;28;20052;-82
2021/07/18 04:12:04;;;;;;;3.90;2.75;;;18.00;90.10;;;;;;2090143;28;20482;-83
2021/07/18 04:13:05;;;;;;;4.30;2.83;;;18.00;90.10;;;;;;2072984;28;20022;-82
2021/07/18 04:14:05;;;;;;;5.20;3.15;;;18.00;90.10;;;;;;2064999;28;20405;-82
2021/07/18 04:15:07;;;;;;;6.03;3.83;;;18.00;90.00;;;;;;2073052;28;20420;-82
2021/07/18 04:16:08;;;;;;;4.80;3.40;;;18.00;90.00;;;;;;2073247;28;20042;-82
2021/07/18 04:17:08;;;;;;;5.22;3.47;;;18.00;90.00;;;;;;2064772;28;20041;-82
2021/07/18 04:18:10;;;;;;;4.57;3.30;;;18.00;90.30;;;;;;2072912;28;20034;-82
2021/07/18 04:19:10;;;;;;;4.55;3.25;;;18.00;90.00;;;;;;2089327;28;20029;-82
2021/07/18 04:20:11;;;;;;;4.53;3.40;;;18.00;90.10;;;;;;2073012;28;20022;-82
2021/07/18 04:21:12;;;;;;;4.15;3.00;;;17.90;90.10;;;;;;2065075;28;20105;-82
2021/07/18 04:22:13;;;;;;;4.63;3.08;;;18.00;90.20;;;;;;2064771;28;20030;-82
2021/07/18 04:23:14;;;;;;;4.20;3.00;;;18.00;90.20;;;;;;2065008;28;20034;-82
2021/07/18 04:24:14;;;;;;;4.28;3.20;;;18.00;90.20;;;;;;2065157;28;20038;-82
2021/07/18 04:25:15;;;;;;;4.68;3.28;;;18.00;90.10;;;;;;2073082;28;20068;-82
2021/07/18 04:26:15;;;;;;;4.28;2.95;;;18.00;90.10;;;;;;2048979;29;20023;-82
2021/07/18 04:27:16;;;;;;;4.13;2.85;;;18.00;90.10;;;;;;2048817;28;20077;-82
2021/07/18 04:28:17;;;;;;;4.57;3.08;;;18.00;90.10;;;;;;2056771;28;20031;-82
2021/07/18 04:29:18;;;;;;;4.65;3.15;;;18.00;90.10;;;;;;2065021;28;20082;-82
2021/07/18 04:30:18;;;;;;;4.95;3.30;;;18.00;90.10;;;;;;2072944;28;20597;-82
2021/07/18 04:31:19;;;;;;;5.65;2.85;;;18.00;90.10;;;;;;2064717;28;20396;-82
2021/07/18 04:32:19;;;;;;;5.85;3.40;;;18.00;90.10;;;;;;2056832;28;20106;-82
2021/07/18 04:33:20;;;;;;;4.95;3.00;;;18.00;90.10;;;;;;2064897;28;20035;-82
2021/07/18 04:34:21;;;;;;;4.38;3.00;;;18.00;90.10;;;;;;2088322;28;20028;-82
2021/07/18 04:35:22;;;;;;;4.30;2.72;;;18.10;90.10;;;;;;2081221;28;20483;-82
2021/07/18 04:36:22;;;;;;;4.90;3.05;;;18.10;90.10;;;;;;2081042;28;20092;-82
2021/07/18 04:37:23;;;;;;;3.78;2.90;;;18.10;90.10;;;;;;2064837;28;20026;-82
2021/07/18 04:38:23;;;;;;;4.70;2.85;;;18.10;90.00;;;;;;2073077;28;20164;-82
2021/07/18 04:39:25;;;;;;;4.32;2.70;;;18.20;90.10;;;;;;2089206;28;20102;-83
2021/07/18 04:40:28;;;;;;;4.05;3.05;;;18.20;90.00;;;;;;2081178;28;20060;-82
2021/07/18 04:41:29;;;;;;;3.97;2.85;;;18.20;90.00;;;;;;2081560;28;20028;-82
2021/07/18 04:42:30;;;;;;;4.70;3.22;;;18.20;90.00;;;;;;2073425;28;20048;-82
2021/07/18 04:43:31;;;;;;;4.68;3.00;;;18.20;90.00;;;;;;2080880;28;20037;-82
2021/07/18 04:44:32;;;;;;;3.83;2.80;;;18.20;89.90;;;;;;2081024;28;20061;-82
2021/07/18 04:45:33;;;;;;;4.30;2.72;;;18.20;89.80;;;;;;2059701;28;20113;-82
2021/07/18 04:46:34;;;;;;;4.18;2.80;;;18.20;89.80;;;;;;2064730;28;20508;-83
2021/07/18 04:47:56;;;;;;;3.45;2.45;;;18.20;89.70;;;;;;2048621;29;20518;-82
2021/07/18 04:48:56;;;;;;;4.07;2.80;;;18.20;89.60;;;;;;2057053;28;20030;-82
2021/07/18 04:49:57;;;;;;;4.07;2.80;;;18.20;89.70;;;;;;2064805;28;20027;-82
2021/07/18 04:50:58;;;;;;;3.58;2.75;;;18.20;89.60;;;;;;2062188;28;20117;-82
2021/07/18 04:51:59;;;;;;;4.15;2.58;;;18.20;89.60;;;;;;2072871;28;20125;-83
2021/07/18 04:52:59;;;;;;;3.72;2.50;;;18.20;89.60;;;;;;2056546;28;20031;-82
2021/07/18 04:54:00;;;;;;;3.97;2.60;;;18.20;89.50;;;;;;2073000;28;20177;-82
2021/07/18 04:55:01;;;;;;;3.95;2.70;;;18.20;89.50;;;;;;2064763;28;20030;-83
2021/07/18 04:56:01;;;;;;;4.32;3.00;;;18.20;89.50;;;;;;2064705;28;20038;-82
2021/07/18 04:57:02;;;;;;;4.50;2.65;;;18.20;89.50;;;;;;2056789;28;20071;-83
2021/07/18 04:58:03;;;;;;;3.80;2.50;;;18.30;89.60;;;;;;2064643;28;20563;-82
2021/07/18 04:59:03;;;;;;;4.78;2.45;;;18.20;89.50;;;;;;2081089;28;20175;-82
2021/07/18 05:00:08;;;;;;;3.85;2.47;;;18.20;89.50;;;;;;2072789;28;20022;-82
2021/07/18 05:01:09;;;;;;;3.70;2.75;;;18.30;89.60;;;;;;2073717;28;20065;-82
2021/07/18 05:02:09;;;;;;;3.35;2.50;;;18.30;89.60;;;;;;2089804;28;20423;-82
2021/07/18 05:03:10;;;;;;;4.03;2.70;;;18.30;89.50;;;;;;2072711;28;20026;-82
2021/07/18 05:04:11;;;;;;;3.67;2.28;;;18.30;90.00;;;;;;2064727;28;20465;-82
2021/07/18 05:05:13;;;;;;;3.88;2.60;;;18.30;89.30;;;;;;2080757;28;20029;-82
2021/07/18 05:06:14;;;;;;;4.40;2.70;;;18.40;89.30;;;;;;2080711;28;20037;-82
2021/07/18 05:07:15;;;;;;;3.92;2.60;;;18.40;89.30;;;;;;2080984;28;20527;-82
2021/07/18 05:08:15;;;;;;;3.72;2.42;;;18.40;89.20;;;;;;2089629;28;20045;-82
2021/07/18 05:09:16;;;;;;;3.20;2.40;;;18.40;89.10;;;;;;2064460;28;20038;-82
2021/07/18 05:10:24;;;;;;;4.60;2.67;;;18.40;89.00;;;;;;2064643;28;20030;-82
2021/07/18 05:11:24;;;;;;;3.65;2.67;;;18.50;89.00;;;;;;2089149;28;20449;-82
2021/07/18 05:12:25;;;;;;;4.53;2.70;;;18.50;88.90;;;;;;2080883;28;20159;-82
2021/07/18 05:13:26;;;;;;;4.60;3.00;;;18.60;88.90;;;;;;2080932;28;20026;-82
2021/07/18 05:14:26;;;;;;;3.60;2.60;;;18.60;88.80;;;;;;2064352;28;20089;-82
2021/07/18 05:15:27;;;;;;;3.72;2.40;;;18.60;88.60;;;;;;2056607;28;20027;-82
2021/07/18 05:16:30;;;;;;;3.83;2.30;;;18.60;88.60;;;;;;2072458;28;20133;-82
2021/07/18 05:17:30;;;;;;;3.78;2.40;;;18.70;88.50;;;;;;2082014;28;20551;-83
2021/07/18 05:18:31;;;;;;;4.38;2.65;;;18.80;88.50;;;;;;2066366;28;20027;-82